Time;durP1;ratioP1;P1;durP2;ratioP2;P2;SDS_P1;SDS_P2;PMS_P1;PMS_P2;Temp;Humidity;BMP_temperature;BMP_pressure;BME280_temperature;BME280_humidity;BME280_pressure;Samples;Min_cycle;Max_cycle;Signal;HPM_P1;HPM_P2
2023/05/30 00:01:23;;;;;;;12.00;3.03;;;17.50;77.60;;;;;;5055791;28;20044;-71
2023/05/30 00:03:50;;;;;;;12.82;3.08;;;17.60;77.70;;;;;;5055679;28;20025;-71
2023/05/30 00:06:16;;;;;;;13.15;2.90;;;17.60;77.70;;;;;;5055789;28;20031;-71
2023/05/30 00:08:42;;;;;;;13.70;2.72;;;17.60;77.70;;;;;;5055997;28;20028;-72
2023/05/30 00:11:08;;;;;;;11.85;2.88;;;17.60;77.60;;;;;;5055915;28;20429;-72
2023/05/30 00:13:34;;;;;;;8.55;2.47;;;17.50;77.70;;;;;;5055576;28;20029;-72
2023/05/30 00:16:01;;;;;;;13.45;3.20;;;17.50;77.90;;;;;;5055635;28;20137;-72
2023/05/30 00:18:34;;;;;;;14.73;2.92;;;17.50;77.80;;;;;;5055265;28;20029;-71
2023/05/30 00:21:07;;;;;;;10.82;2.65;;;17.50;77.80;;;;;;5054368;28;20025;-71
2023/05/30 00:23:35;;;;;;;11.07;2.40;;;17.40;78.00;;;;;;5055422;28;20075;-72
2023/05/30 00:26:01;;;;;;;11.82;2.78;;;17.30;78.20;;;;;;5055524;28;20055;-71
2023/05/30 00:28:27;;;;;;;8.43;2.88;;;17.40;78.30;;;;;;5055162;28;20474;-72
2023/05/30 00:30:53;;;;;;;15.00;3.15;;;17.40;78.90;;;;;;5055350;28;20116;-71
2023/05/30 00:33:19;;;;;;;12.98;3.92;;;17.40;78.50;;;;;;5054890;28;20475;-72
2023/05/30 00:35:45;;;;;;;9.75;2.20;;;17.30;78.40;;;;;;5055154;28;20528;-71
2023/05/30 00:38:11;;;;;;;9.13;2.97;;;17.30;78.50;;;;;;5055178;28;20033;-72
2023/05/30 00:40:36;;;;;;;10.65;2.67;;;17.30;78.80;;;;;;5055115;28;20025;-72
2023/05/30 00:43:02;;;;;;;13.27;3.00;;;17.30;78.80;;;;;;5053739;28;20110;-71
2023/05/30 00:45:27;;;;;;;10.82;2.90;;;17.20;79.10;;;;;;5045411;28;20025;-71
2023/05/30 00:47:53;;;;;;;8.35;2.60;;;17.20;79.20;;;;;;5043233;28;20026;-72
2023/05/30 00:50:19;;;;;;;12.45;2.53;;;17.10;79.30;;;;;;5034021;28;20203;-72
2023/05/30 00:52:48;;;;;;;14.13;2.90;;;17.10;79.50;;;;;;5032831;28;20021;-71
2023/05/30 00:55:15;;;;;;;12.88;2.97;;;17.00;79.70;;;;;;5035080;28;20022;-71
2023/05/30 00:57:42;;;;;;;12.75;3.28;;;17.10;79.80;;;;;;5034607;28;20045;-71
2023/05/30 01:00:10;;;;;;;11.80;2.95;;;17.00;79.90;;;;;;5034826;28;20021;-72
2023/05/30 01:02:38;;;;;;;11.27;2.85;;;17.10;79.90;;;;;;5034553;28;20033;-72
2023/05/30 01:05:04;;;;;;;10.90;2.65;;;17.00;80.10;;;;;;5034766;28;20026;-71
2023/05/30 01:07:31;;;;;;;10.93;2.85;;;17.00;80.10;;;;;;5034647;28;20482;-71
2023/05/30 01:09:57;;;;;;;13.95;3.00;;;17.00;80.30;;;;;;5034883;28;20029;-71
2023/05/30 01:12:54;;;;;;;14.45;2.92;;;16.90;80.30;;;;;;5034652;28;20033;-71
2023/05/30 01:15:26;;;;;;;12.77;3.05;;;16.90;80.50;;;;;;5034607;28;20025;-71
2023/05/30 01:18:04;;;;;;;15.48;2.65;;;16.90;80.60;;;;;;5034240;28;20018;-72
2023/05/30 01:20:40;;;;;;;11.32;2.40;;;16.90;80.80;;;;;;5034623;28;20546;-72
2023/05/30 01:23:33;;;;;;;12.88;3.03;;;16.90;81.00;;;;;;5034473;28;20079;-71
2023/05/30 01:26:06;;;;;;;14.90;3.78;;;16.90;81.50;;;;;;5034593;28;20485;-72
2023/05/30 01:28:39;;;;;;;12.90;3.33;;;16.80;81.00;;;;;;5034178;28;20033;-71
2023/05/30 01:31:06;;;;;;;14.52;3.40;;;16.80;81.30;;;;;;5033658;28;20109;-71
2023/05/30 01:33:33;;;;;;;10.73;3.03;;;16.80;81.70;;;;;;5033061;28;20037;-71
2023/05/30 01:35:58;;;;;;;12.00;2.97;;;16.80;81.30;;;;;;5034099;28;20147;-72
2023/05/30 01:38:24;;;;;;;11.65;2.97;;;16.80;81.30;;;;;;5034200;28;20112;-72
2023/05/30 01:40:53;;;;;;;11.95;2.97;;;16.70;81.30;;;;;;5034397;28;20454;-71
2023/05/30 01:43:40;;;;;;;16.23;3.30;;;16.70;81.40;;;;;;5033992;28;20474;-71
2023/05/30 01:46:37;;;;;;;12.18;2.65;;;16.70;81.50;;;;;;5033700;28;20152;-71
2023/05/30 01:49:24;;;;;;;14.82;2.72;;;16.70;81.60;;;;;;5033596;28;20025;-71
2023/05/30 01:51:58;;;;;;;15.57;3.45;;;16.70;81.70;;;;;;5034015;28;20033;-71
2023/05/30 01:54:27;;;;;;;15.43;3.15;;;16.70;81.80;;;;;;5033857;28;20017;-72
2023/05/30 01:56:56;;;;;;;12.63;2.70;;;16.60;81.80;;;;;;5033789;28;20053;-71
2023/05/30 01:59:25;;;;;;;14.82;3.08;;;16.60;81.90;;;;;;5033603;28;20025;-72
2023/05/30 02:01:54;;;;;;;12.57;2.83;;;16.60;81.90;;;;;;5033584;28;20047;-71
2023/05/30 02:04:20;;;;;;;17.90;3.42;;;16.60;82.20;;;;;;5033724;28;20049;-72
2023/05/30 02:06:45;;;;;;;13.63;2.97;;;16.60;82.00;;;;;;5033874;28;20053;-72
2023/05/30 02:09:11;;;;;;;9.55;2.72;;;16.60;82.10;;;;;;5033336;28;20040;-72
2023/05/30 02:11:37;;;;;;;8.27;2.17;;;16.60;82.10;;;;;;5033694;28;20032;-72
2023/05/30 02:14:04;;;;;;;10.95;2.70;;;16.50;82.00;;;;;;5033285;28;20079;-72
2023/05/30 02:16:30;;;;;;;9.23;2.40;;;16.50;82.00;;;;;;5033509;28;20037;-72
2023/05/30 02:18:56;;;;;;;14.30;2.88;;;16.40;82.40;;;;;;5033896;28;20021;-71
2023/05/30 02:21:22;;;;;;;8.38;2.65;;;16.50;82.50;;;;;;5033273;28;20021;-71
2023/05/30 02:23:47;;;;;;;13.88;2.85;;;16.40;82.50;;;;;;5033413;28;20022;-71
2023/05/30 02:26:13;;;;;;;15.35;3.28;;;16.40;82.70;;;;;;5033285;28;20087;-71
2023/05/30 02:28:38;;;;;;;10.95;2.97;;;16.40;82.50;;;;;;5032859;28;20338;-71
2023/05/30 02:31:04;;;;;;;12.00;3.08;;;16.40;82.50;;;;;;5033373;28;20029;-71
2023/05/30 02:33:30;;;;;;;12.73;3.15;;;16.40;82.50;;;;;;5033182;28;20028;-71
2023/05/30 02:35:55;;;;;;;12.30;3.15;;;16.40;82.60;;;;;;5048391;28;20387;-71
2023/05/30 02:38:21;;;;;;;10.40;3.15;;;16.30;82.70;;;;;;5033125;28;20029;-71
2023/05/30 02:40:46;;;;;;;16.60;3.60;;;16.30;83.10;;;;;;5033093;28;20025;-71
2023/05/30 02:43:13;;;;;;;12.35;3.35;;;16.30;83.10;;;;;;5032003;28;20042;-71
2023/05/30 02:45:38;;;;;;;12.35;3.63;;;16.30;83.10;;;;;;5032979;28;20025;-71
2023/05/30 02:48:05;;;;;;;16.75;3.10;;;16.20;83.10;;;;;;5032985;28;20083;-71
2023/05/30 02:50:31;;;;;;;12.85;3.70;;;16.20;83.40;;;;;;5032878;28;20025;-71
2023/05/30 02:52:56;;;;;;;16.77;3.08;;;16.20;83.60;;;;;;5032962;28;20028;-71
2023/05/30 02:55:22;;;;;;;13.52;3.15;;;16.20;83.40;;;;;;5032768;28;20033;-71
2023/05/30 02:57:48;;;;;;;14.57;4.50;;;16.10;84.50;;;;;;5032766;28;20033;-71
2023/05/30 03:00:14;;;;;;;18.60;3.65;;;16.10;83.60;;;;;;5047995;28;20024;-71
2023/05/30 03:02:39;;;;;;;15.07;3.67;;;16.10;83.60;;;;;;5033267;28;20091;-72
2023/05/30 03:05:06;;;;;;;16.25;3.92;;;16.10;83.40;;;;;;5032741;28;20034;-71
2023/05/30 03:07:32;;;;;;;14.80;3.35;;;16.10;83.60;;;;;;5032640;28;20461;-72
2023/05/30 03:09:58;;;;;;;16.67;3.63;;;16.10;83.90;;;;;;5032910;28;20471;-72
2023/05/30 03:12:24;;;;;;;11.10;3.25;;;16.10;83.80;;;;;;5032441;28;20037;-71
2023/05/30 03:14:49;;;;;;;13.63;3.22;;;16.10;83.90;;;;;;5031438;28;20040;-72
2023/05/30 03:17:15;;;;;;;13.95;3.20;;;16.10;83.80;;;;;;5032962;28;20041;-72
2023/05/30 03:19:44;;;;;;;12.75;3.85;;;16.10;83.90;;;;;;5032082;28;20356;-72
2023/05/30 03:22:10;;;;;;;13.18;3.30;;;16.00;84.20;;;;;;5032565;28;20048;-71
2023/05/30 03:24:35;;;;;;;13.68;3.55;;;16.00;84.30;;;;;;5032912;28;20471;-72
2023/05/30 03:27:02;;;;;;;10.98;3.53;;;16.00;84.20;;;;;;5032117;28;20088;-72
2023/05/30 03:29:27;;;;;;;11.60;3.38;;;16.00;84.20;;;;;;5032500;28;20095;-72
2023/05/30 03:31:53;;;;;;;14.32;3.78;;;16.00;84.50;;;;;;5032923;28;20108;-72
2023/05/30 03:34:19;;;;;;;15.68;3.22;;;15.90;84.40;;;;;;5032637;28;20024;-72
2023/05/30 03:36:45;;;;;;;12.65;3.17;;;15.80;85.30;;;;;;5032383;28;20033;-72
2023/05/30 03:39:12;;;;;;;12.95;3.40;;;15.90;84.40;;;;;;5032609;28;20032;-72
2023/05/30 03:41:40;;;;;;;12.10;3.20;;;16.00;84.50;;;;;;5031522;28;20132;-72
2023/05/30 03:44:05;;;;;;;13.93;3.90;;;15.90;84.40;;;;;;5032602;28;20033;-71
2023/05/30 03:46:31;;;;;;;15.77;3.45;;;15.90;84.40;;;;;;5032375;28;20040;-71
2023/05/30 03:48:57;;;;;;;16.67;3.78;;;15.90;84.50;;;;;;5032488;28;20068;-72
2023/05/30 03:51:23;;;;;;;16.23;3.28;;;15.80;84.60;;;;;;5047522;28;20048;-72
2023/05/30 03:53:49;;;;;;;16.52;3.75;;;15.80;84.80;;;;;;5031690;28;20072;-72
2023/05/30 03:56:14;;;;;;;12.80;3.20;;;15.90;84.60;;;;;;5035519;28;20029;-72
2023/05/30 03:58:40;;;;;;;13.68;3.63;;;15.80;84.80;;;;;;5036240;28;20056;-72
2023/05/30 04:01:06;;;;;;;14.63;3.78;;;15.80;84.90;;;;;;5036089;28;20029;-72
2023/05/30 04:03:31;;;;;;;18.23;4.53;;;15.70;85.20;;;;;;5035925;28;20382;-72
2023/05/30 04:05:58;;;;;;;19.33;4.25;;;15.80;85.30;;;;;;5035864;28;20021;-72
2023/05/30 04:08:24;;;;;;;13.05;3.53;;;15.70;85.10;;;;;;5035679;28;20421;-73
2023/05/30 04:10:50;;;;;;;18.48;3.70;;;15.80;85.30;;;;;;5035595;28;20021;-73
2023/05/30 04:13:15;;;;;;;14.05;3.13;;;15.80;85.00;;;;;;5035708;28;20026;-72
2023/05/30 04:15:41;;;;;;;12.70;3.20;;;15.70;85.20;;;;;;5035839;28;20390;-73
2023/05/30 04:18:07;;;;;;;12.68;2.90;;;15.70;85.30;;;;;;5035706;28;20028;-73
2023/05/30 04:20:33;;;;;;;12.30;3.83;;;15.70;85.30;;;;;;5035503;28;20028;-73
2023/05/30 04:22:59;;;;;;;15.38;3.67;;;15.80;85.40;;;;;;5035604;28;20487;-73
2023/05/30 04:25:25;;;;;;;12.10;3.58;;;15.70;85.60;;;;;;5051001;28;20072;-73
2023/05/30 04:27:50;;;;;;;11.50;3.88;;;15.70;85.50;;;;;;5035147;28;20033;-73
2023/05/30 04:30:17;;;;;;;12.45;3.30;;;15.70;85.80;;;;;;5035498;28;20395;-72
2023/05/30 04:32:42;;;;;;;14.95;3.42;;;15.70;86.10;;;;;;5035388;28;20418;-73
2023/05/30 04:35:08;;;;;;;13.48;3.53;;;15.70;85.70;;;;;;5035356;28;20466;-73
2023/05/30 04:37:38;;;;;;;15.88;3.92;;;15.70;86.00;;;;;;5035128;28;20041;-73
2023/05/30 04:40:04;;;;;;;13.93;3.33;;;15.70;85.80;;;;;;5035259;28;20488;-73
2023/05/30 04:42:33;;;;;;;12.70;2.97;;;15.60;86.30;;;;;;5035022;28;20474;-73
2023/05/30 04:45:00;;;;;;;12.48;3.90;;;15.70;86.10;;;;;;5035728;28;20116;-72
2023/05/30 04:47:28;;;;;;;13.32;3.25;;;15.70;86.00;;;;;;5034913;28;20119;-73
2023/05/30 04:49:54;;;;;;;14.80;3.58;;;15.70;85.60;;;;;;5035230;28;20021;-72
2023/05/30 04:52:21;;;;;;;18.50;4.57;;;15.70;85.80;;;;;;5034884;28;20067;-72
2023/05/30 04:54:46;;;;;;;15.80;4.20;;;15.70;86.00;;;;;;5034846;28;20364;-73
2023/05/30 04:57:12;;;;;;;17.70;3.50;;;15.70;85.90;;;;;;5034873;28;20458;-73
2023/05/30 04:59:39;;;;;;;13.90;4.00;;;15.60;86.00;;;;;;5034757;28;20100;-73
2023/05/30 05:02:04;;;;;;;11.85;3.72;;;15.60;86.90;;;;;;5050157;28;20021;-72
2023/05/30 05:04:30;;;;;;;13.90;3.83;;;15.60;86.30;;;;;;5054527;28;20083;-72
2023/05/30 05:06:56;;;;;;;15.52;4.20;;;15.60;86.10;;;;;;5053049;28;20029;-72
2023/05/30 05:09:24;;;;;;;12.88;4.03;;;15.70;86.10;;;;;;5053958;28;20053;-72
2023/05/30 05:11:50;;;;;;;13.18;3.70;;;15.70;86.20;;;;;;5054638;28;20025;-73
2023/05/30 05:14:16;;;;;;;11.85;3.78;;;15.70;86.10;;;;;;5054582;28;20037;-72
2023/05/30 05:16:41;;;;;;;14.52;3.50;;;15.70;86.10;;;;;;5054440;28;20493;-72
2023/05/30 05:19:07;;;;;;;16.98;4.43;;;15.70;86.30;;;;;;5038686;28;21222;-72
2023/05/30 05:21:32;;;;;;;15.98;3.72;;;15.60;86.50;;;;;;5029919;28;20413;-72
2023/05/30 05:23:58;;;;;;;15.02;4.57;;;15.70;86.30;;;;;;5029609;28;20521;-72
2023/05/30 05:26:24;;;;;;;17.10;4.22;;;15.70;86.20;;;;;;5032437;28;20025;-72
2023/05/30 05:28:50;;;;;;;16.33;4.45;;;15.70;86.30;;;;;;5043016;28;20022;-73
2023/05/30 05:31:17;;;;;;;17.33;4.28;;;15.60;86.40;;;;;;5035492;28;20599;-72
2023/05/30 05:33:42;;;;;;;11.13;4.00;;;15.70;86.70;;;;;;5050908;28;20060;-72
2023/05/30 05:36:08;;;;;;;17.13;4.00;;;15.70;86.30;;;;;;5055648;28;20064;-73
2023/05/30 05:38:35;;;;;;;10.55;3.55;;;15.70;87.10;;;;;;5071540;28;20028;-72
2023/05/30 05:41:00;;;;;;;12.38;3.75;;;15.80;86.90;;;;;;5074078;28;20029;-72
2023/05/30 05:43:26;;;;;;;13.70;4.18;;;15.80;86.00;;;;;;5056686;28;20089;-74
2023/05/30 05:45:51;;;;;;;14.73;4.00;;;15.80;86.50;;;;;;5032257;28;20026;-72
2023/05/30 05:48:17;;;;;;;14.68;3.63;;;15.90;85.70;;;;;;5035972;28;20100;-75
2023/05/30 05:50:43;;;;;;;17.75;4.28;;;15.90;85.70;;;;;;5062383;28;20029;-75
2023/05/30 05:53:09;;;;;;;12.68;3.65;;;16.00;85.50;;;;;;5037197;28;20026;-75
2023/05/30 05:55:34;;;;;;;12.27;4.07;;;16.00;85.50;;;;;;5039443;28;20368;-74
2023/05/30 05:58:00;;;;;;;11.05;4.20;;;16.00;85.30;;;;;;5052854;28;20029;-75
2023/05/30 06:00:25;;;;;;;11.90;3.47;;;16.00;84.90;;;;;;5044325;28;20033;-75
2023/05/30 06:02:51;;;;;;;14.30;4.13;;;16.10;84.90;;;;;;5038248;28;20062;-73
2023/05/30 06:05:17;;;;;;;11.88;3.75;;;16.10;85.20;;;;;;5031445;28;20842;-75
2023/05/30 06:07:42;;;;;;;12.35;3.55;;;16.20;85.20;;;;;;5033193;28;20099;-74
2023/05/30 06:10:09;;;;;;;13.90;3.75;;;16.20;84.50;;;;;;5040136;28;20119;-75
2023/05/30 06:12:34;;;;;;;13.23;4.18;;;16.30;84.50;;;;;;5034235;28;20017;-73
2023/05/30 06:15:00;;;;;;;15.15;4.13;;;16.30;85.40;;;;;;5032261;28;20048;-74
2023/05/30 06:17:25;;;;;;;17.10;4.43;;;16.30;85.20;;;;;;5034920;28;20048;-74
2023/05/30 06:19:51;;;;;;;12.93;3.47;;;16.40;84.60;;;;;;5039092;28;20029;-74
2023/05/30 06:22:17;;;;;;;14.93;4.60;;;16.40;84.70;;;;;;5052916;28;20036;-75
2023/05/30 06:24:42;;;;;;;13.93;3.60;;;16.60;83.70;;;;;;5053301;28;20052;-76
2023/05/30 06:27:08;;;;;;;14.25;3.60;;;16.60;83.50;;;;;;5043227;28;20036;-76
2023/05/30 06:29:37;;;;;;;20.80;4.75;;;16.70;82.80;;;;;;5032965;28;20112;-74
2023/05/30 06:32:03;;;;;;;13.45;3.72;;;16.80;82.90;;;;;;5033235;28;20372;-74
2023/05/30 06:34:28;;;;;;;14.10;4.25;;;16.90;82.40;;;;;;5033153;28;20437;-73
2023/05/30 06:36:55;;;;;;;11.15;3.92;;;16.90;82.20;;;;;;5032851;28;20037;-73
2023/05/30 06:39:21;;;;;;;10.68;3.50;;;17.00;81.90;;;;;;5033157;28;20024;-74
2023/05/30 06:41:47;;;;;;;15.23;4.22;;;17.00;81.40;;;;;;5032560;28;20037;-74
2023/05/30 06:44:13;;;;;;;15.57;3.25;;;17.10;81.30;;;;;;5033047;28;20378;-73
2023/05/30 06:46:38;;;;;;;20.40;4.70;;;17.10;81.30;;;;;;5036512;28;20104;-76
2023/05/30 06:49:04;;;;;;;11.27;4.10;;;17.10;81.80;;;;;;5034404;28;20025;-76
2023/05/30 06:51:30;;;;;;;11.85;3.88;;;17.20;80.90;;;;;;5040317;28;20025;-76
2023/05/30 06:53:57;;;;;;;14.38;4.07;;;17.20;80.80;;;;;;5032613;28;20501;-75
2023/05/30 06:56:22;;;;;;;11.38;4.07;;;17.30;81.20;;;;;;5043248;28;20036;-75
2023/05/30 06:58:48;;;;;;;10.27;4.13;;;17.40;80.60;;;;;;5036089;28;20030;-75
2023/05/30 07:01:14;;;;;;;13.27;4.28;;;17.50;79.80;;;;;;5035196;28;20026;-75
2023/05/30 07:03:39;;;;;;;12.88;4.25;;;17.60;79.70;;;;;;5031972;28;20025;-75
2023/05/30 07:06:06;;;;;;;12.82;3.72;;;17.60;79.90;;;;;;5033899;28;20030;-75
2023/05/30 07:08:32;;;;;;;11.18;3.75;;;17.60;79.80;;;;;;5049077;28;20043;-77
2023/05/30 07:10:57;;;;;;;11.90;3.70;;;17.60;80.10;;;;;;5034465;28;20029;-76
2023/05/30 07:13:23;;;;;;;14.63;4.13;;;17.60;80.10;;;;;;5031456;28;20041;-78
2023/05/30 07:15:48;;;;;;;10.68;3.42;;;17.80;80.10;;;;;;5036227;28;20482;-78
2023/05/30 07:18:14;;;;;;;9.95;2.97;;;17.80;79.40;;;;;;5050224;28;20029;-76
2023/05/30 07:20:39;;;;;;;12.80;3.83;;;17.90;79.30;;;;;;5038642;28;20033;-76
2023/05/30 07:23:05;;;;;;;11.02;3.67;;;18.00;78.60;;;;;;5031279;28;20430;-76
2023/05/30 07:25:31;;;;;;;9.93;3.40;;;18.10;78.80;;;;;;5043513;28;20584;-77
2023/05/30 07:27:56;;;;;;;12.00;3.70;;;18.10;78.60;;;;;;5046350;28;20418;-76
2023/05/30 07:30:22;;;;;;;9.55;3.70;;;18.10;78.70;;;;;;5047381;28;20026;-75
2023/05/30 07:32:49;;;;;;;9.63;3.53;;;18.20;78.30;;;;;;5045005;28;20017;-76
2023/05/30 07:35:15;;;;;;;11.00;3.80;;;18.20;77.70;;;;;;5044910;28;20033;-76
2023/05/30 07:37:40;;;;;;;9.75;3.30;;;18.20;77.70;;;;;;5051389;28;20029;-76
2023/05/30 07:40:07;;;;;;;10.20;3.47;;;18.30;77.10;;;;;;5055888;28;20466;-76
2023/05/30 07:42:38;;;;;;;10.25;3.25;;;18.30;77.40;;;;;;5047394;28;20083;-77
2023/05/30 07:45:05;;;;;;;8.23;3.15;;;18.40;77.60;;;;;;5044396;28;20024;-76
2023/05/30 07:47:30;;;;;;;10.43;3.80;;;18.40;77.70;;;;;;5036532;28;20064;-75
2023/05/30 07:49:56;;;;;;;10.30;3.78;;;18.40;77.20;;;;;;5047515;28;20052;-76
2023/05/30 07:52:21;;;;;;;11.50;3.67;;;18.40;77.00;;;;;;5038321;28;20041;-77
2023/05/30 07:54:48;;;;;;;10.65;4.68;;;18.50;77.00;;;;;;5044263;28;20030;-76
2023/05/30 07:57:13;;;;;;;9.00;3.95;;;18.50;76.50;;;;;;5034242;28;20557;-76
2023/05/30 07:59:42;;;;;;;14.00;4.25;;;18.60;76.20;;;;;;5040386;28;20104;-77
2023/05/30 08:02:08;;;;;;;11.65;4.70;;;18.60;76.70;;;;;;5055732;28;20032;-76
2023/05/30 08:04:34;;;;;;;13.10;4.40;;;18.60;76.20;;;;;;5046250;28;20010;-76
2023/05/30 08:07:01;;;;;;;11.27;4.07;;;18.60;76.50;;;;;;5034639;28;20558;-76
2023/05/30 08:09:27;;;;;;;11.80;3.83;;;18.60;76.50;;;;;;5038937;28;20010;-76
2023/05/30 08:11:52;;;;;;;12.85;4.15;;;18.70;76.50;;;;;;5049656;28;20035;-77
2023/05/30 08:14:18;;;;;;;8.43;3.63;;;18.70;76.00;;;;;;5038107;28;20029;-76
2023/05/30 08:16:44;;;;;;;7.13;3.60;;;18.70;75.70;;;;;;5035173;28;20057;-76
2023/05/30 08:19:11;;;;;;;13.10;3.45;;;18.70;76.00;;;;;;5037926;28;20013;-76
2023/05/30 08:21:36;;;;;;;7.82;3.42;;;18.90;75.50;;;;;;5041701;28;20423;-76
2023/05/30 08:24:02;;;;;;;11.80;3.55;;;18.90;75.40;;;;;;5033975;28;20045;-76
2023/05/30 08:26:31;;;;;;;9.18;4.25;;;18.90;74.80;;;;;;5044249;28;20429;-76
2023/05/30 08:28:57;;;;;;;14.10;4.63;;;19.00;75.50;;;;;;5038040;28;20067;-76
2023/05/30 08:31:23;;;;;;;9.25;3.33;;;19.00;75.60;;;;;;5035347;28;20056;-76
2023/05/30 08:33:49;;;;;;;10.35;3.50;;;19.00;76.30;;;;;;5050433;28;20036;-76
2023/05/30 08:36:15;;;;;;;9.85;3.90;;;19.00;75.20;;;;;;5043051;28;20041;-76
2023/05/30 08:38:41;;;;;;;9.00;3.67;;;19.00;74.80;;;;;;5045646;28;20018;-75
2023/05/30 08:41:07;;;;;;;13.07;4.07;;;19.00;75.20;;;;;;5040317;28;20025;-75
2023/05/30 08:43:32;;;;;;;9.40;3.95;;;19.00;75.60;;;;;;5046733;28;20029;-74
2023/05/30 08:45:59;;;;;;;10.05;4.38;;;19.10;75.80;;;;;;5054779;28;20036;-77
2023/05/30 08:48:26;;;;;;;9.10;3.90;;;19.20;75.60;;;;;;5042696;28;20536;-75
2023/05/30 08:50:52;;;;;;;11.60;3.95;;;19.20;76.00;;;;;;5047555;28;20086;-75
2023/05/30 08:53:30;;;;;;;7.90;3.92;;;19.20;76.90;;;;;;5043516;28;20523;-75
2023/05/30 08:56:01;;;;;;;11.32;4.65;;;19.20;76.50;;;;;;5053730;28;20013;-76
2023/05/30 08:58:35;;;;;;;12.88;4.78;;;19.20;76.30;;;;;;5048903;28;20586;-75
2023/05/30 09:01:01;;;;;;;12.43;4.00;;;19.20;76.80;;;;;;5052642;28;20036;-75
2023/05/30 09:03:29;;;;;;;12.23;4.65;;;19.20;77.70;;;;;;5046288;28;20363;-75
2023/05/30 09:05:56;;;;;;;8.00;4.35;;;19.20;77.20;;;;;;5044595;28;20028;-75
2023/05/30 09:08:26;;;;;;;8.77;4.25;;;19.30;77.00;;;;;;5040765;28;20033;-75
2023/05/30 09:10:53;;;;;;;8.95;4.28;;;19.30;77.30;;;;;;5047033;28;20029;-76
2023/05/30 09:13:20;;;;;;;9.40;4.60;;;19.30;77.00;;;;;;5050082;28;20033;-76
2023/05/30 09:15:46;;;;;;;8.35;4.28;;;19.30;77.10;;;;;;5049788;28;20029;-76
2023/05/30 09:18:12;;;;;;;9.57;4.20;;;19.30;77.00;;;;;;5052927;28;20028;-76
2023/05/30 09:20:39;;;;;;;9.77;4.45;;;19.40;76.70;;;;;;5053262;28;20432;-75
2023/05/30 09:23:06;;;;;;;8.90;4.70;;;19.40;76.30;;;;;;5046919;28;20029;-75
2023/05/30 09:25:42;;;;;;;8.77;4.53;;;19.30;76.90;;;;;;5047774;28;20040;-75
2023/05/30 09:28:08;;;;;;;10.35;4.55;;;19.30;76.60;;;;;;5052683;28;20025;-75
2023/05/30 09:30:33;;;;;;;7.43;4.32;;;19.30;76.50;;;;;;5052687;28;20075;-76
2023/05/30 09:33:03;;;;;;;8.90;5.03;;;19.30;76.90;;;;;;5045704;28;20029;-76
2023/05/30 09:35:29;;;;;;;10.07;5.35;;;19.30;76.50;;;;;;5052844;28;20105;-75
2023/05/30 09:37:55;;;;;;;7.68;5.50;;;19.30;76.50;;;;;;5052017;28;20127;-76
2023/05/30 09:40:23;;;;;;;8.85;4.70;;;19.30;77.00;;;;;;5051045;28;20029;-75
2023/05/30 09:42:51;;;;;;;8.00;5.40;;;19.30;77.50;;;;;;5048162;28;20056;-75
2023/05/30 09:45:24;;;;;;;10.07;5.57;;;19.40;76.50;;;;;;5054146;28;20020;-75
2023/05/30 09:47:52;;;;;;;7.82;5.50;;;19.30;76.80;;;;;;5051547;28;20030;-75
2023/05/30 09:50:20;;;;;;;16.05;5.47;;;19.40;76.90;;;;;;5034576;28;20032;-75
2023/05/30 09:52:49;;;;;;;10.25;5.32;;;19.40;76.80;;;;;;5050175;28;20056;-75
2023/05/30 09:55:15;;;;;;;9.73;5.22;;;19.40;76.50;;;;;;5050479;28;20055;-68
2023/05/30 09:57:47;;;;;;;11.68;5.75;;;19.30;75.50;;;;;;5040694;28;20071;-69
2023/05/30 10:00:15;;;;;;;14.13;5.80;;;19.10;76.10;;;;;;5039649;28;20033;-72
2023/05/30 10:02:54;;;;;;;13.80;5.95;;;18.80;76.30;;;;;;5047015;28;20021;-70
2023/05/30 10:05:22;;;;;;;14.10;5.88;;;18.70;77.30;;;;;;5045526;28;20023;-71
2023/05/30 10:07:50;;;;;;;12.00;6.07;;;18.70;77.20;;;;;;5039321;28;20030;-69
2023/05/30 10:10:17;;;;;;;11.85;6.10;;;18.60;77.80;;;;;;5048829;28;20414;-71
2023/05/30 10:12:46;;;;;;;10.95;5.38;;;18.70;78.30;;;;;;5046936;28;20468;-71
2023/05/30 10:15:12;;;;;;;11.02;6.30;;;18.80;77.80;;;;;;5032228;28;20209;-69
2023/05/30 10:17:47;;;;;;;12.63;6.78;;;18.80;77.60;;;;;;5042681;28;20068;-71
2023/05/30 10:20:15;;;;;;;9.85;6.15;;;18.80;78.00;;;;;;5039529;28;20051;-71
2023/05/30 10:22:46;;;;;;;13.10;7.10;;;18.70;78.60;;;;;;5051503;28;20017;-70
2023/05/30 10:25:15;;;;;;;12.70;6.05;;;18.60;78.20;;;;;;5041608;28;20119;-68
2023/05/30 10:27:48;;;;;;;10.50;5.55;;;18.60;78.40;;;;;;5045564;28;20032;-69
2023/05/30 10:30:21;;;;;;;11.65;6.82;;;18.70;79.10;;;;;;5038231;28;20475;-72
2023/05/30 10:32:54;;;;;;;10.68;7.20;;;18.80;78.00;;;;;;5031697;28;20088;-68
2023/05/30 10:35:20;;;;;;;13.90;6.72;;;18.70;78.10;;;;;;5035264;28;20017;-68
2023/05/30 10:37:47;;;;;;;13.45;6.13;;;18.70;78.40;;;;;;5046040;28;20048;-68
2023/05/30 10:40:43;;;;;;;13.50;6.57;;;18.80;78.40;;;;;;5040296;28;20300;-68
2023/05/30 10:43:44;;;;;;;10.77;7.45;;;18.90;77.70;;;;;;5050161;28;20071;-69
2023/05/30 10:46:18;;;;;;;16.02;7.10;;;18.60;78.10;;;;;;5046123;28;20052;-69
2023/05/30 10:48:47;;;;;;;14.55;7.28;;;18.20;79.80;;;;;;5032592;28;20156;-69
2023/05/30 10:51:16;;;;;;;14.60;6.80;;;18.10;80.40;;;;;;5037025;28;20060;-66
2023/05/30 10:53:46;;;;;;;12.38;7.10;;;18.30;79.70;;;;;;5037744;28;20025;-68
2023/05/30 10:56:40;;;;;;;11.25;6.70;;;18.40;78.60;;;;;;5042731;28;20386;-66
2023/05/30 10:59:14;;;;;;;17.27;5.32;;;18.50;78.90;;;;;;5031766;28;20038;-67
2023/05/30 11:01:40;;;;;;;12.70;5.28;;;18.70;79.90;;;;;;5034822;28;20116;-66
2023/05/30 11:04:11;;;;;;;15.77;6.18;;;18.90;79.20;;;;;;5040565;28;20086;-67
2023/05/30 11:06:46;;;;;;;14.88;6.22;;;19.00;78.20;;;;;;5041517;28;20063;-66
2023/05/30 11:09:16;;;;;;;13.15;6.95;;;19.20;78.30;;;;;;5038057;28;20081;-67
2023/05/30 11:11:53;;;;;;;11.85;6.40;;;19.20;77.10;;;;;;5046163;28;20513;-67
2023/05/30 11:14:24;;;;;;;12.57;7.05;;;19.30;77.80;;;;;;5043155;28;20025;-67
2023/05/30 11:17:02;;;;;;;11.13;6.20;;;19.20;76.90;;;;;;5043441;28;20076;-66
2023/05/30 11:19:44;;;;;;;12.18;6.20;;;19.30;77.70;;;;;;5051359;28;20119;-67
2023/05/30 11:22:13;;;;;;;11.48;6.32;;;19.30;77.40;;;;;;5048114;28;20025;-66
2023/05/30 11:24:42;;;;;;;16.38;6.63;;;19.40;77.40;;;;;;5043158;28;20146;-67
2023/05/30 11:27:09;;;;;;;13.18;6.75;;;19.20;77.10;;;;;;5035969;28;20553;-66
2023/05/30 11:29:39;;;;;;;54.28;9.60;;;19.30;77.30;;;;;;5036507;28;20457;-74
2023/05/30 11:32:08;;;;;;;16.52;4.47;;;19.40;79.70;;;;;;5044872;28;20532;-74
2023/05/30 11:34:34;;;;;;;13.15;5.88;;;19.50;78.30;;;;;;5051755;28;20371;-74
2023/05/30 11:37:01;;;;;;;13.18;5.80;;;19.70;77.20;;;;;;5047900;28;20041;-74
2023/05/30 11:39:26;;;;;;;9.30;5.13;;;19.70;76.90;;;;;;5042554;28;20463;-74
2023/05/30 11:41:53;;;;;;;13.93;6.03;;;19.70;76.70;;;;;;5046264;28;20120;-75
2023/05/30 11:44:19;;;;;;;12.00;6.18;;;19.80;76.70;;;;;;5050609;28;20040;-74
2023/05/30 11:47:00;;;;;;;14.13;5.13;;;19.80;77.50;;;;;;5038893;28;20041;-74
2023/05/30 11:49:26;;;;;;;15.88;6.22;;;19.90;77.40;;;;;;5041462;28;20098;-73
2023/05/30 11:51:52;;;;;;;12.65;5.75;;;20.00;76.90;;;;;;5044673;28;20120;-74
2023/05/30 11:54:19;;;;;;;11.38;4.70;;;19.90;76.60;;;;;;5032059;28;20044;-74
2023/05/30 11:56:44;;;;;;;15.63;5.78;;;20.00;77.20;;;;;;5038713;28;20036;-75
2023/05/30 11:59:11;;;;;;;11.32;5.50;;;19.80;76.70;;;;;;5050072;28;20044;-75
2023/05/30 12:01:37;;;;;;;11.45;5.20;;;19.90;76.70;;;;;;5050791;28;20033;-75
2023/05/30 12:04:05;;;;;;;17.05;5.00;;;19.90;76.50;;;;;;5049202;28;20079;-74
2023/05/30 12:06:31;;;;;;;13.00;4.65;;;20.00;76.80;;;;;;5051474;28;20052;-74
2023/05/30 12:08:57;;;;;;;12.95;5.10;;;20.10;76.90;;;;;;5050992;28;20025;-73
2023/05/30 12:11:23;;;;;;;13.32;4.35;;;20.10;76.50;;;;;;5048249;28;20066;-76
2023/05/30 12:13:54;;;;;;;13.52;5.60;;;20.10;76.80;;;;;;5046221;28;20063;-76
2023/05/30 12:16:19;;;;;;;13.13;4.45;;;20.20;76.40;;;;;;5050551;28;20033;-76
2023/05/30 12:18:45;;;;;;;7.90;3.65;;;20.20;76.10;;;;;;5062916;28;20039;-74
2023/05/30 12:21:12;;;;;;;13.60;4.95;;;20.20;76.90;;;;;;5044693;28;20017;-76
2023/05/30 12:23:42;;;;;;;11.57;4.55;;;20.20;76.10;;;;;;5048545;28;20198;-73
2023/05/30 12:26:16;;;;;;;8.80;3.85;;;20.30;75.90;;;;;;5044669;28;20029;-78
2023/05/30 12:28:49;;;;;;;9.73;4.20;;;20.20;76.30;;;;;;5037561;28;20136;-75
2023/05/30 12:31:24;;;;;;;12.90;4.82;;;20.30;77.00;;;;;;5039814;28;20474;-75
2023/05/30 12:33:50;;;;;;;13.40;4.07;;;20.40;76.80;;;;;;5044138;28;20021;-75
2023/05/30 12:36:15;;;;;;;12.35;4.72;;;20.30;76.80;;;;;;5047239;28;20386;-77
2023/05/30 12:38:41;;;;;;;12.95;4.70;;;20.30;76.70;;;;;;5039910;28;20466;-75
2023/05/30 12:41:07;;;;;;;12.55;4.90;;;20.40;76.60;;;;;;5053642;28;20112;-77